AKDT,Max TemperatureF,Mean TemperatureF,Min TemperatureF,Max Dew PointF,MeanDew PointF,Min DewpointF,Max Humidity, Mean Humidity, Min Humidity, Max Sea Level PressureIn, Mean Sea Level PressureIn, Min Sea Level PressureIn, Max VisibilityMiles, Mean VisibilityMiles, Min VisibilityMiles, Max Wind SpeedMPH, Mean Wind SpeedMPH, Max Gust SpeedMPH,PrecipitationIn, CloudCover, Events, WindDirDegrees
2013-7-1,61,57,53,59,56,51,100,96,84,30.03,29.98,29.94,10,6,1,17,7,25,0.56,8,Rain,192
2013-7-2,57,54,51,54,52,49,100,92,74,30.13,30.09,30.02,10,7,2,15,7,22,0.40,8,Rain,145
2013-7-3,62,56,51,56,54,52,100,96,80,30.17,30.14,30.11,10,7,2,13,6,,0.29,8,Rain,174
2013-7-4,59,54,51,54,52,50,100,90,81,30.28,30.23,30.18,10,9,3,14,5,,0.15,8,Rain,303
2013-7-5,59,56,53,55,53,51,100,92,83,30.27,30.25,30.22,10,10,5,10,4,,0.02,8,Rain,271
2013-7-6,60,56,53,53,51,50,100,86,75,30.22,30.15,30.10,10,10,10,5,2,,0.00,8,,155
2013-7-7,61,56,51,56,53,50,100,87,75,30.09,30.02,29.92,10,10,8,18,6,26,0.04,7,Rain,184
2013-7-8,57,54,51,57,54,49,100,97,83,30.05,29.94,29.88,10,4,1,15,9,22,1.24,8,Rain,177
2013-7-9,52,52,51,54,51,49,100,95,88,30.08,30.05,29.95,10,6,2,10,6,21,0.80,8,Rain,153
2013-7-10,62,54,48,52,50,47,100,83,67,29.96,29.94,29.92,10,10,10,16,5,22,0.06,7,Rain,313
2013-7-11,60,56,54,55,53,51,97,88,81,29.99,29.95,29.92,10,10,6,10,3,,0.01,8,Rain,292
2013-7-12,60,57,55,55,53,51,100,89,78,30.09,30.03,29.99,10,9,2,9,3,,0.02,8,Rain,250
2013-7-13,60,56,54,55,53,51,93,89,83,30.26,30.15,30.09,10,8,2,9,4,,0.15,8,Rain,230
2013-7-14,66,58,51,53,51,48,93,78,60,30.32,30.30,30.26,10,10,9,12,5,,0.00,2,,208
2013-7-15,66,60,53,53,50,48,86,74,60,30.30,30.24,30.20,10,10,10,17,7,,0.00,6,,324
2013-7-16,66,62,57,55,53,50,83,74,66,30.20,30.12,30.04,10,10,10,16,10,18,0.00,4,,319
2013-7-17,66,62,57,55,53,52,88,79,63,30.08,30.03,30.01,10,10,10,16,9,,0.00,4,,322
2013-7-18,64,60,57,56,54,51,90,83,75,30.25,30.19,30.08,10,10,10,10,7,,0.00,7,,253
2013-7-19,61,59,57,55,54,54,93,86,81,30.24,30.19,30.14,10,10,6,9,5,,0.00,8,,240
2013-7-20,62,59,57,57,55,54,97,90,83,30.13,30.05,30.00,10,7,2,12,3,,0.05,8,Rain,205
2013-7-21,64,59,55,56,54,54,93,88,78,29.99,29.96,29.94,10,8,2,8,5,,0.06,8,Fog-Rain,169
2013-7-22,62,58,54,56,54,50,97,86,67,30.07,30.01,29.98,10,7,2,12,4,,0.11,7,Rain,213
2013-7-23,68,59,54,57,54,50,93,83,58,30.07,30.04,30.02,10,10,9,8,2,,0.10,7,Rain,250
2013-7-24,63,59,57,57,55,54,96,91,80,30.09,30.08,30.06,10,8,2,9,4,,0.35,8,Rain,226
2013-7-25,64,60,55,56,54,52,96,87,72,30.20,30.14,30.09,10,7,2,13,4,,0.40,7,Rain,208
2013-7-26,64,59,55,56,55,53,93,84,75,30.31,30.26,30.21,10,10,6,6,4,,0.01,8,Rain,166
2013-7-27,66,62,57,57,55,53,90,81,70,30.32,30.29,30.24,10,10,10,17,4,,0.00,7,,298
2013-7-28,71,63,55,59,56,52,90,75,65,30.23,30.17,30.12,10,10,10,12,6,,0.00,2,,281
2013-7-29,70,64,57,58,56,55,96,86,63,30.13,30.13,30.10,10,8,2,16,7,,0.00,5,Fog,317
2013-7-30,68,62,57,57,55,54,90,79,68,30.22,30.18,30.14,10,10,10,20,11,,0.00,4,Fog,327
2013-7-31,68,62,57,56,55,53,87,79,65,30.22,30.18,30.10,10,10,10,17,10,20,0.00,3,,324